Roy Baker — WDC2698 — position and weather

sailwx.info

Track history (hours):
 
Tides and Currents Weather Stations Pressure Air Temp Water Temp Dewpoint Dewpoint Depression Visibility Wind Speed Wind Dir Waves Ship Positions

Roy Baker

Owner: Kirby Inland Marine LP, Houston, TX. More information available from US FCC via Universal Licensing System and Coast Guard Vessel Documentation Center.

Last reported at 2016-Jul-25 07:16 UTC. Time now 2016-Jul-26 08:28 UTC.
Position N 29°45' W 095°11'.

Length 24 m.

Type: Towing. MMSI: 366996540.

Date/timePositionNaut miles runAvg speedWind from/ knotsBaromVisibWave heightAir tempDewpointWater temp
2016-Jul-25 07:16N 29°45' W 095°11'5 4.5
2016-Jul-25 06:16N 29°46' W 095°05'3 4.4
2016-Jul-25 05:33N 29°44' W 095°02'5 5.1
2016-Jul-25 04:31N 29°40' W 094°58'5 5.5
2016-Jul-25 03:33N 29°35' W 094°56'71 2.0
2016-Jul-23 15:28N 30°04' W 093°42'5 5.4
2016-Jul-23 14:33N 30°04' W 093°36'7 7.1
2016-Jul-23 13:33N 30°04' W 093°28'6 6.4
2016-Jul-23 12:33N 30°05' W 093°20'3 3.2
2016-Jul-23 11:33N 30°05' W 093°17'6 6.1
2016-Jul-23 10:33N 29°59' W 093°13'7 6.6
2016-Jul-23 09:33N 29°56' W 093°06'7 6.2
2016-Jul-23 08:29N 29°56' W 092°59'29 6.9
2016-Jul-23 04:19N 29°53' W 092°26'5 6.7
2016-Jul-23 03:33N 29°51' W 092°20'5 5.2
2016-Jul-23 02:33N 29°48' W 092°15'5 4.9
2016-Jul-23 01:33N 29°47' W 092°10'7 7.0
2016-Jul-23 00:33N 29°49' W 092°02'65 6.4
2016-Jul-22 14:26N 29°32' W 090°50'6 6.3
2016-Jul-22 13:33N 29°34' W 090°44'4 4.1
2016-Jul-22 12:33N 29°36' W 090°40'0 0.2
2016-Jul-22 11:33N 29°36' W 090°40'0 0.2
2016-Jul-22 10:33N 29°36' W 090°40'0 0.0
2016-Jul-22 09:33N 29°36' W 090°40'2 2.0
2016-Jul-22 08:33N 29°35' W 090°38'32 5.2
2016-Jul-22 02:20N 29°48' W 090°04'3 4.3
2016-Jul-22 01:33N 29°51' W 090°02'5 5.4
2016-Jul-22 00:33N 29°55' W 089°58'1 0.6
2016-Jul-21 23:33N 29°55' W 089°58'0 0.0
2016-Jul-21 22:33N 29°55' W 089°58'0 0.0
2016-Jul-21 21:33N 29°55' W 089°58'0 0.0
2016-Jul-21 20:33N 29°55' W 089°58'4 4.4
2016-Jul-21 19:33N 29°58' W 090°02'1 0.6
2016-Jul-21 18:33N 29°59' W 090°01'2 1.6
2016-Jul-21 17:33N 29°60' W 090°00'0 0.0
2016-Jul-21 16:33N 29°60' W 090°00'1 0.9
2016-Jul-21 15:33N 29°60' W 089°59'0 0.0
2016-Jul-21 14:33N 29°60' W 089°59'0 0.0
2016-Jul-21 13:33N 29°60' W 089°59'0 0.0
2016-Jul-21 12:33N 29°60' W 089°59'0 0.0
2016-Jul-21 11:33N 29°60' W 089°59'0 0.0
2016-Jul-21 10:33N 29°60' W 089°59'0 0.0
2016-Jul-21 09:33N 29°60' W 089°59'0 0.0
2016-Jul-21 08:33N 29°60' W 089°59'0 0.0
2016-Jul-21 07:33N 29°60' W 089°59'0 0.0
2016-Jul-21 06:33N 29°60' W 089°59'0 0.0
2016-Jul-21 05:33N 29°60' W 089°59'0 0.0
2016-Jul-21 04:33N 29°60' W 089°59'0 0.0
2016-Jul-21 03:27N 29°60' W 089°59'0 0.0
2016-Jul-21 02:33N 29°60' W 089°59'0 0.0
2016-Jul-21 01:33N 29°60' W 089°59'0 0.0
2016-Jul-21 00:33N 29°60' W 089°59'0 0.0
2016-Jul-20 23:33N 29°60' W 089°59'0 0.0
2016-Jul-20 22:33N 29°60' W 089°59'0 0.0
2016-Jul-20 21:33N 29°60' W 089°59'0 0.0
2016-Jul-20 20:34N 29°60' W 089°59'  
Track history (hours):
 
Tides and Currents Weather Stations Pressure Air Temp Water Temp Dewpoint Dewpoint Depression Visibility Wind Speed Wind Dir Waves Ship Positions

Roy Baker

Owner: Kirby Inland Marine LP, Houston, TX. More information available from US FCC via Universal Licensing System and Coast Guard Vessel Documentation Center.

Last reported at 2016-Jul-25 07:16 UTC. Time now 2016-Jul-26 08:28 UTC.
Position N 29°45' W 095°11'.

Length 24 m.

Type: Towing. MMSI: 366996540.

Date/timePositionNaut miles runAvg speedWind from/ knotsBaromVisibWave heightAir tempDewpointWater temp
2016-Jul-25 07:16N 29°45' W 095°11'5 4.5
2016-Jul-25 06:16N 29°46' W 095°05'3 4.4
2016-Jul-25 05:33N 29°44' W 095°02'5 5.1
2016-Jul-25 04:31N 29°40' W 094°58'5 5.5
2016-Jul-25 03:33N 29°35' W 094°56'71 2.0
2016-Jul-23 15:28N 30°04' W 093°42'5 5.4
2016-Jul-23 14:33N 30°04' W 093°36'7 7.1
2016-Jul-23 13:33N 30°04' W 093°28'6 6.4
2016-Jul-23 12:33N 30°05' W 093°20'3 3.2
2016-Jul-23 11:33N 30°05' W 093°17'6 6.1
2016-Jul-23 10:33N 29°59' W 093°13'7 6.6
2016-Jul-23 09:33N 29°56' W 093°06'7 6.2
2016-Jul-23 08:29N 29°56' W 092°59'29 6.9
2016-Jul-23 04:19N 29°53' W 092°26'5 6.7
2016-Jul-23 03:33N 29°51' W 092°20'5 5.2
2016-Jul-23 02:33N 29°48' W 092°15'5 4.9
2016-Jul-23 01:33N 29°47' W 092°10'7 7.0
2016-Jul-23 00:33N 29°49' W 092°02'65 6.4
2016-Jul-22 14:26N 29°32' W 090°50'6 6.3
2016-Jul-22 13:33N 29°34' W 090°44'4 4.1
2016-Jul-22 12:33N 29°36' W 090°40'0 0.2
2016-Jul-22 11:33N 29°36' W 090°40'0 0.2
2016-Jul-22 10:33N 29°36' W 090°40'0 0.0
2016-Jul-22 09:33N 29°36' W 090°40'2 2.0
2016-Jul-22 08:33N 29°35' W 090°38'32 5.2
2016-Jul-22 02:20N 29°48' W 090°04'3 4.3
2016-Jul-22 01:33N 29°51' W 090°02'5 5.4
2016-Jul-22 00:33N 29°55' W 089°58'1 0.6
2016-Jul-21 23:33N 29°55' W 089°58'0 0.0
2016-Jul-21 22:33N 29°55' W 089°58'0 0.0
2016-Jul-21 21:33N 29°55' W 089°58'0 0.0
2016-Jul-21 20:33N 29°55' W 089°58'4 4.4
2016-Jul-21 19:33N 29°58' W 090°02'1 0.6
2016-Jul-21 18:33N 29°59' W 090°01'2 1.6
2016-Jul-21 17:33N 29°60' W 090°00'0 0.0
2016-Jul-21 16:33N 29°60' W 090°00'1 0.9
2016-Jul-21 15:33N 29°60' W 089°59'0 0.0
2016-Jul-21 14:33N 29°60' W 089°59'0 0.0
2016-Jul-21 13:33N 29°60' W 089°59'0 0.0
2016-Jul-21 12:33N 29°60' W 089°59'0 0.0
2016-Jul-21 11:33N 29°60' W 089°59'0 0.0
2016-Jul-21 10:33N 29°60' W 089°59'0 0.0
2016-Jul-21 09:33N 29°60' W 089°59'0 0.0
2016-Jul-21 08:33N 29°60' W 089°59'0 0.0
2016-Jul-21 07:33N 29°60' W 089°59'0 0.0
2016-Jul-21 06:33N 29°60' W 089°59'0 0.0
2016-Jul-21 05:33N 29°60' W 089°59'0 0.0
2016-Jul-21 04:33N 29°60' W 089°59'0 0.0
2016-Jul-21 03:27N 29°60' W 089°59'0 0.0
2016-Jul-21 02:33N 29°60' W 089°59'0 0.0
2016-Jul-21 01:33N 29°60' W 089°59'0 0.0
2016-Jul-21 00:33N 29°60' W 089°59'0 0.0
2016-Jul-20 23:33N 29°60' W 089°59'0 0.0
2016-Jul-20 22:33N 29°60' W 089°59'0 0.0
2016-Jul-20 21:33N 29°60' W 089°59'0 0.0
2016-Jul-20 20:34N 29°60' W 089°59'  

Dump ship's entire track history